sensor_id;sensor_type;location;lat;lon;timestamp;P1;durP1;ratioP1;P2;durP2;ratioP2
13801;SDS011;6972;51.518;6.918;2023-04-15T00:01:25;11.00;;;6.00;;
13801;SDS011;6972;51.518;6.918;2023-04-15T00:03:51;10.50;;;6.17;;
13801;SDS011;6972;51.518;6.918;2023-04-15T00:06:18;9.17;;;6.50;;
13801;SDS011;6972;51.518;6.918;2023-04-15T00:08:44;11.20;;;6.30;;
13801;SDS011;6972;51.518;6.918;2023-04-15T00:11:10;8.07;;;5.43;;
13801;SDS011;6972;51.518;6.918;2023-04-15T00:13:36;8.80;;;5.97;;
13801;SDS011;6972;51.518;6.918;2023-04-15T00:16:03;12.80;;;6.70;;
13801;SDS011;6972;51.518;6.918;2023-04-15T00:18:30;10.23;;;5.73;;
13801;SDS011;6972;51.518;6.918;2023-04-15T00:20:56;9.73;;;6.73;;
13801;SDS011;6972;51.518;6.918;2023-04-15T00:23:22;11.20;;;6.87;;
13801;SDS011;6972;51.518;6.918;2023-04-15T00:25:48;17.37;;;8.30;;
13801;SDS011;6972;51.518;6.918;2023-04-15T00:28:15;13.03;;;8.23;;
13801;SDS011;6972;51.518;6.918;2023-04-15T00:30:41;16.30;;;9.20;;
13801;SDS011;6972;51.518;6.918;2023-04-15T00:33:07;16.87;;;8.90;;
13801;SDS011;6972;51.518;6.918;2023-04-15T00:35:33;16.20;;;8.23;;
13801;SDS011;6972;51.518;6.918;2023-04-15T00:38:01;15.70;;;8.83;;
13801;SDS011;6972;51.518;6.918;2023-04-15T00:40:27;14.67;;;8.43;;
13801;SDS011;6972;51.518;6.918;2023-04-15T00:42:53;17.33;;;9.53;;
13801;SDS011;6972;51.518;6.918;2023-04-15T00:45:19;16.40;;;8.57;;
13801;SDS011;6972;51.518;6.918;2023-04-15T00:47:45;9.70;;;7.17;;
13801;SDS011;6972;51.518;6.918;2023-04-15T00:50:11;14.60;;;7.67;;
13801;SDS011;6972;51.518;6.918;2023-04-15T00:52:37;13.27;;;7.40;;
13801;SDS011;6972;51.518;6.918;2023-04-15T00:55:08;11.10;;;7.20;;
13801;SDS011;6972;51.518;6.918;2023-04-15T01:04:24;15.27;;;9.93;;
13801;SDS011;6972;51.518;6.918;2023-04-15T01:09:34;12.63;;;7.17;;
13801;SDS011;6972;51.518;6.918;2023-04-15T01:12:00;13.00;;;6.50;;
13801;SDS011;6972;51.518;6.918;2023-04-15T01:14:26;8.60;;;6.40;;
13801;SDS011;6972;51.518;6.918;2023-04-15T01:16:52;11.03;;;6.70;;
13801;SDS011;6972;51.518;6.918;2023-04-15T01:19:18;10.03;;;6.80;;
13801;SDS011;6972;51.518;6.918;2023-04-15T01:21:45;16.17;;;5.97;;
13801;SDS011;6972;51.518;6.918;2023-04-15T01:24:11;9.57;;;6.43;;
13801;SDS011;6972;51.518;6.918;2023-04-15T01:26:39;11.83;;;6.83;;
13801;SDS011;6972;51.518;6.918;2023-04-15T01:29:05;11.43;;;6.03;;
13801;SDS011;6972;51.518;6.918;2023-04-15T01:39:17;10.07;;;6.33;;
13801;SDS011;6972;51.518;6.918;2023-04-15T02:20:36;11.70;;;6.50;;
13801;SDS011;6972;51.518;6.918;2023-04-15T02:25:30;16.10;;;8.23;;
13801;SDS011;6972;51.518;6.918;2023-04-15T02:35:32;13.60;;;6.97;;
13801;SDS011;6972;51.518;6.918;2023-04-15T02:37:58;10.80;;;6.93;;
13801;SDS011;6972;51.518;6.918;2023-04-15T02:48:39;14.30;;;6.67;;
13801;SDS011;6972;51.518;6.918;2023-04-15T03:54:18;12.03;;;7.70;;
13801;SDS011;6972;51.518;6.918;2023-04-15T05:27:19;16.13;;;9.23;;
13801;SDS011;6972;51.518;6.918;2023-04-15T06:38:47;14.97;;;9.90;;
13801;SDS011;6972;51.518;6.918;2023-04-15T06:41:12;14.90;;;10.77;;
13801;SDS011;6972;51.518;6.918;2023-04-15T06:43:41;16.30;;;11.47;;
13801;SDS011;6972;51.518;6.918;2023-04-15T06:46:08;14.07;;;11.03;;
13801;SDS011;6972;51.518;6.918;2023-04-15T06:48:34;14.63;;;11.10;;
13801;SDS011;6972;51.518;6.918;2023-04-15T06:51:00;16.23;;;10.97;;
13801;SDS011;6972;51.518;6.918;2023-04-15T06:53:26;20.33;;;11.00;;
13801;SDS011;6972;51.518;6.918;2023-04-15T06:55:52;13.47;;;9.60;;
13801;SDS011;6972;51.518;6.918;2023-04-15T06:58:17;13.47;;;10.00;;
13801;SDS011;6972;51.518;6.918;2023-04-15T07:00:46;14.00;;;10.17;;
13801;SDS011;6972;51.518;6.918;2023-04-15T07:03:13;14.93;;;10.00;;
13801;SDS011;6972;51.518;6.918;2023-04-15T07:10:42;12.27;;;8.87;;
13801;SDS011;6972;51.518;6.918;2023-04-15T07:13:08;14.67;;;9.83;;
13801;SDS011;6972;51.518;6.918;2023-04-15T07:15:35;13.07;;;8.20;;
13801;SDS011;6972;51.518;6.918;2023-04-15T07:18:01;15.60;;;9.33;;
13801;SDS011;6972;51.518;6.918;2023-04-15T07:20:26;14.27;;;9.13;;
13801;SDS011;6972;51.518;6.918;2023-04-15T07:22:52;11.73;;;8.40;;
13801;SDS011;6972;51.518;6.918;2023-04-15T07:25:18;13.77;;;7.73;;
13801;SDS011;6972;51.518;6.918;2023-04-15T07:27:43;11.67;;;8.47;;
13801;SDS011;6972;51.518;6.918;2023-04-15T07:30:10;11.10;;;8.20;;
13801;SDS011;6972;51.518;6.918;2023-04-15T07:32:36;15.97;;;8.83;;
13801;SDS011;6972;51.518;6.918;2023-04-15T07:35:02;13.80;;;8.70;;
13801;SDS011;6972;51.518;6.918;2023-04-15T07:37:28;10.87;;;7.77;;
13801;SDS011;6972;51.518;6.918;2023-04-15T07:39:54;13.27;;;8.20;;
13801;SDS011;6972;51.518;6.918;2023-04-15T07:42:20;9.80;;;7.70;;
13801;SDS011;6972;51.518;6.918;2023-04-15T07:44:46;11.60;;;8.57;;
13801;SDS011;6972;51.518;6.918;2023-04-15T07:47:12;11.70;;;8.33;;
13801;SDS011;6972;51.518;6.918;2023-04-15T07:49:38;11.70;;;8.17;;
13801;SDS011;6972;51.518;6.918;2023-04-15T07:52:04;9.10;;;6.50;;
13801;SDS011;6972;51.518;6.918;2023-04-15T07:54:32;9.30;;;5.70;;
13801;SDS011;6972;51.518;6.918;2023-04-15T07:56:58;9.67;;;5.03;;
13801;SDS011;6972;51.518;6.918;2023-04-15T07:59:24;8.90;;;5.10;;
13801;SDS011;6972;51.518;6.918;2023-04-15T08:01:51;6.67;;;5.00;;
13801;SDS011;6972;51.518;6.918;2023-04-15T08:04:18;6.33;;;4.80;;
13801;SDS011;6972;51.518;6.918;2023-04-15T08:06:44;8.67;;;4.90;;
13801;SDS011;6972;51.518;6.918;2023-04-15T08:09:11;5.67;;;4.87;;
13801;SDS011;6972;51.518;6.918;2023-04-15T08:11:37;8.03;;;5.50;;
13801;SDS011;6972;51.518;6.918;2023-04-15T08:14:04;9.73;;;5.60;;
13801;SDS011;6972;51.518;6.918;2023-04-15T08:16:29;7.27;;;5.43;;
13801;SDS011;6972;51.518;6.918;2023-04-15T08:18:56;5.60;;;4.77;;
13801;SDS011;6972;51.518;6.918;2023-04-15T08:21:22;7.33;;;4.70;;
13801;SDS011;6972;51.518;6.918;2023-04-15T08:23:49;6.47;;;5.33;;
13801;SDS011;6972;51.518;6.918;2023-04-15T08:26:16;7.23;;;5.13;;
13801;SDS011;6972;51.518;6.918;2023-04-15T08:28:43;10.50;;;5.83;;
13801;SDS011;6972;51.518;6.918;2023-04-15T08:31:09;8.00;;;5.40;;
13801;SDS011;6972;51.518;6.918;2023-04-15T08:33:36;8.35;;;5.80;;
13801;SDS011;6972;51.518;6.918;2023-04-15T08:36:02;8.20;;;5.07;;
13801;SDS011;6972;51.518;6.918;2023-04-15T08:38:28;6.70;;;4.90;;
13801;SDS011;6972;51.518;6.918;2023-04-15T08:40:54;7.72;;;4.88;;
13801;SDS011;6972;51.518;6.918;2023-04-15T08:43:23;5.95;;;4.60;;
13801;SDS011;6972;51.518;6.918;2023-04-15T08:45:52;6.13;;;4.38;;
13801;SDS011;6972;51.518;6.918;2023-04-15T08:48:18;5.10;;;3.80;;
13801;SDS011;6972;51.518;6.918;2023-04-15T08:50:45;6.38;;;4.18;;
13801;SDS011;6972;51.518;6.918;2023-04-15T08:53:12;6.32;;;4.53;;
13801;SDS011;6972;51.518;6.918;2023-04-15T08:55:44;7.10;;;4.15;;
13801;SDS011;6972;51.518;6.918;2023-04-15T08:58:16;5.63;;;4.32;;
13801;SDS011;6972;51.518;6.918;2023-04-15T09:00:43;7.50;;;4.80;;
13801;SDS011;6972;51.518;6.918;2023-04-15T09:03:09;6.43;;;4.55;;
13801;SDS011;6972;51.518;6.918;2023-04-15T09:05:37;5.00;;;4.20;;
13801;SDS011;6972;51.518;6.918;2023-04-15T09:08:03;7.73;;;4.67;;
13801;SDS011;6972;51.518;6.918;2023-04-15T09:10:30;6.37;;;4.30;;
13801;SDS011;6972;51.518;6.918;2023-04-15T09:12:56;6.23;;;4.47;;
13801;SDS011;6972;51.518;6.918;2023-04-15T09:15:25;6.03;;;4.40;;
13801;SDS011;6972;51.518;6.918;2023-04-15T09:17:51;8.48;;;5.05;;
13801;SDS011;6972;51.518;6.918;2023-04-15T09:20:17;5.38;;;4.28;;
13801;SDS011;6972;51.518;6.918;2023-04-15T09:22:44;6.27;;;4.63;;
13801;SDS011;6972;51.518;6.918;2023-04-15T09:27:48;5.53;;;4.80;;
13801;SDS011;6972;51.518;6.918;2023-04-15T09:30:14;9.10;;;4.75;;
13801;SDS011;6972;51.518;6.918;2023-04-15T09:35:16;5.50;;;4.30;;
13801;SDS011;6972;51.518;6.918;2023-04-15T09:37:42;5.80;;;4.18;;
13801;SDS011;6972;51.518;6.918;2023-04-15T09:40:08;5.80;;;4.38;;
13801;SDS011;6972;51.518;6.918;2023-04-15T09:42:35;5.00;;;3.83;;
13801;SDS011;6972;51.518;6.918;2023-04-15T09:45:10;5.85;;;4.55;;
13801;SDS011;6972;51.518;6.918;2023-04-15T09:47:39;5.45;;;4.60;;
13801;SDS011;6972;51.518;6.918;2023-04-15T09:50:05;6.25;;;4.85;;
13801;SDS011;6972;51.518;6.918;2023-04-15T09:52:40;6.55;;;5.15;;
13801;SDS011;6972;51.518;6.918;2023-04-15T09:55:07;6.18;;;4.93;;
13801;SDS011;6972;51.518;6.918;2023-04-15T09:57:34;6.88;;;4.60;;
13801;SDS011;6972;51.518;6.918;2023-04-15T10:00:13;6.65;;;4.70;;
13801;SDS011;6972;51.518;6.918;2023-04-15T10:02:40;5.63;;;4.43;;
13801;SDS011;6972;51.518;6.918;2023-04-15T10:05:12;12.13;;;6.00;;
13801;SDS011;6972;51.518;6.918;2023-04-15T10:07:39;6.50;;;4.00;;
13801;SDS011;6972;51.518;6.918;2023-04-15T10:15:17;6.47;;;4.65;;
13801;SDS011;6972;51.518;6.918;2023-04-15T10:21:06;6.40;;;4.10;;
13801;SDS011;6972;51.518;6.918;2023-04-15T10:26:55;6.70;;;5.03;;
13801;SDS011;6972;51.518;6.918;2023-04-15T10:31:54;4.75;;;3.83;;
13801;SDS011;6972;51.518;6.918;2023-04-15T10:34:21;4.75;;;3.47;;
13801;SDS011;6972;51.518;6.918;2023-04-15T10:36:48;5.38;;;3.80;;
13801;SDS011;6972;51.518;6.918;2023-04-15T10:42:09;6.18;;;5.20;;
13801;SDS011;6972;51.518;6.918;2023-04-15T10:44:37;6.30;;;4.97;;
13801;SDS011;6972;51.518;6.918;2023-04-15T10:47:10;7.47;;;4.93;;
13801;SDS011;6972;51.518;6.918;2023-04-15T10:49:44;4.75;;;3.92;;
13801;SDS011;6972;51.518;6.918;2023-04-15T10:52:10;5.35;;;4.25;;
13801;SDS011;6972;51.518;6.918;2023-04-15T10:54:36;5.97;;;4.50;;
13801;SDS011;6972;51.518;6.918;2023-04-15T11:00:15;4.50;;;3.45;;
13801;SDS011;6972;51.518;6.918;2023-04-15T11:02:36;5.35;;;4.40;;
13801;SDS011;6972;51.518;6.918;2023-04-15T11:05:05;4.82;;;3.95;;
13801;SDS011;6972;51.518;6.918;2023-04-15T11:20:48;4.20;;;3.70;;
13801;SDS011;6972;51.518;6.918;2023-04-15T11:36:26;5.90;;;4.32;;
13801;SDS011;6972;51.518;6.918;2023-04-15T11:50:17;6.80;;;4.70;;
13801;SDS011;6972;51.518;6.918;2023-04-15T12:35:59;4.80;;;3.33;;
13801;SDS011;6972;51.518;6.918;2023-04-15T12:46:58;5.47;;;3.23;;
13801;SDS011;6972;51.518;6.918;2023-04-15T12:49:27;3.50;;;3.13;;
13801;SDS011;6972;51.518;6.918;2023-04-15T12:52:02;4.03;;;3.17;;
13801;SDS011;6972;51.518;6.918;2023-04-15T12:54:28;9.45;;;4.00;;
13801;SDS011;6972;51.518;6.918;2023-04-15T12:57:42;5.47;;;3.33;;
13801;SDS011;6972;51.518;6.918;2023-04-15T13:00:22;4.57;;;3.63;;
13801;SDS011;6972;51.518;6.918;2023-04-15T13:03:01;4.38;;;3.35;;
13801;SDS011;6972;51.518;6.918;2023-04-15T13:20:57;5.10;;;2.70;;
13801;SDS011;6972;51.518;6.918;2023-04-15T13:23:23;6.37;;;2.70;;
13801;SDS011;6972;51.518;6.918;2023-04-15T13:25:49;4.27;;;3.00;;
13801;SDS011;6972;51.518;6.918;2023-04-15T13:28:16;8.20;;;2.57;;
13801;SDS011;6972;51.518;6.918;2023-04-15T13:30:42;6.75;;;3.00;;
13801;SDS011;6972;51.518;6.918;2023-04-15T13:33:11;7.20;;;3.10;;
13801;SDS011;6972;51.518;6.918;2023-04-15T13:35:37;6.55;;;3.25;;
13801;SDS011;6972;51.518;6.918;2023-04-15T13:38:03;5.57;;;3.33;;
13801;SDS011;6972;51.518;6.918;2023-04-15T13:40:29;3.72;;;3.00;;
13801;SDS011;6972;51.518;6.918;2023-04-15T13:42:55;4.97;;;3.03;;
13801;SDS011;6972;51.518;6.918;2023-04-15T13:45:21;5.45;;;2.60;;
13801;SDS011;6972;51.518;6.918;2023-04-15T14:07:43;3.50;;;2.80;;
13801;SDS011;6972;51.518;6.918;2023-04-15T14:18:27;3.13;;;2.38;;
13801;SDS011;6972;51.518;6.918;2023-04-15T14:24:15;6.03;;;3.10;;
13801;SDS011;6972;51.518;6.918;2023-04-15T14:26:41;3.67;;;2.90;;
13801;SDS011;6972;51.518;6.918;2023-04-15T14:29:08;4.77;;;3.03;;
13801;SDS011;6972;51.518;6.918;2023-04-15T14:31:38;5.68;;;2.95;;
13801;SDS011;6972;51.518;6.918;2023-04-15T14:34:08;3.73;;;2.77;;
13801;SDS011;6972;51.518;6.918;2023-04-15T14:36:34;4.80;;;2.57;;
13801;SDS011;6972;51.518;6.918;2023-04-15T14:39:00;5.43;;;2.47;;
13801;SDS011;6972;51.518;6.918;2023-04-15T14:41:26;3.27;;;2.60;;
13801;SDS011;6972;51.518;6.918;2023-04-15T15:18:32;7.97;;;3.05;;
13801;SDS011;6972;51.518;6.918;2023-04-15T15:24:35;3.90;;;2.75;;
13801;SDS011;6972;51.518;6.918;2023-04-15T15:30:26;5.15;;;2.50;;
13801;SDS011;6972;51.518;6.918;2023-04-15T15:36:16;3.00;;;2.50;;
13801;SDS011;6972;51.518;6.918;2023-04-15T16:10:21;2.93;;;2.33;;
13801;SDS011;6972;51.518;6.918;2023-04-15T16:20:34;9.03;;;2.90;;
13801;SDS011;6972;51.518;6.918;2023-04-15T16:23:00;3.83;;;2.40;;
13801;SDS011;6972;51.518;6.918;2023-04-15T16:25:35;5.90;;;2.77;;
13801;SDS011;6972;51.518;6.918;2023-04-15T16:30:38;6.20;;;2.60;;
13801;SDS011;6972;51.518;6.918;2023-04-15T16:54:45;4.43;;;2.60;;
13801;SDS011;6972;51.518;6.918;2023-04-15T17:31:42;10.57;;;2.73;;
13801;SDS011;6972;51.518;6.918;2023-04-15T18:54:22;7.80;;;2.40;;
13801;SDS011;6972;51.518;6.918;2023-04-15T18:56:49;9.83;;;3.00;;
13801;SDS011;6972;51.518;6.918;2023-04-15T18:59:15;11.80;;;3.00;;
13801;SDS011;6972;51.518;6.918;2023-04-15T19:01:41;9.43;;;3.13;;
13801;SDS011;6972;51.518;6.918;2023-04-15T19:17:08;9.87;;;2.73;;
13801;SDS011;6972;51.518;6.918;2023-04-15T19:19:37;7.33;;;3.13;;
13801;SDS011;6972;51.518;6.918;2023-04-15T19:22:03;6.90;;;3.03;;
13801;SDS011;6972;51.518;6.918;2023-04-15T19:24:35;8.10;;;3.20;;
13801;SDS011;6972;51.518;6.918;2023-04-15T19:42:46;7.57;;;3.40;;
13801;SDS011;6972;51.518;6.918;2023-04-15T19:45:12;12.27;;;4.00;;
13801;SDS011;6972;51.518;6.918;2023-04-15T19:47:38;11.53;;;3.97;;
13801;SDS011;6972;51.518;6.918;2023-04-15T19:50:05;9.20;;;3.43;;
13801;SDS011;6972;51.518;6.918;2023-04-15T20:10:55;11.70;;;3.70;;
13801;SDS011;6972;51.518;6.918;2023-04-15T20:15:57;12.17;;;4.33;;
13801;SDS011;6972;51.518;6.918;2023-04-15T20:26:10;12.87;;;4.07;;
13801;SDS011;6972;51.518;6.918;2023-04-15T21:02:45;12.50;;;5.03;;
13801;SDS011;6972;51.518;6.918;2023-04-15T21:13:20;16.10;;;5.63;;
13801;SDS011;6972;51.518;6.918;2023-04-15T22:43:30;16.07;;;7.43;;
